Terminal Aerodrome Forecast
Issued by NWS Upton, NY

Home | Current Version | Previous Version | Text Only | Print | Product List | Glossary On
Versions: 1 2 3 4 5 6 7 8 9 10 11 12 13 14 15 16 17 18 19 20 21 22 23 24 25 26 27 28 29 30 31 32 33 34
426
FTUS41 KOKX 180520
TAFLGA
TAF
KLGA 180520Z 1806/1906 17006KT P6SM BKN012
     FM180800 16007KT P6SM VCSH SCT012 OVC050
     FM181000 17007KT 5SM -SHRA VCTS OVC030CB
     FM181200 18010G18KT 3SM SHRA VCTS OVC015CB
      TEMPO 1812/1815 1SM +SHRA OVC009
     FM181600 18012G20KT P6SM SCT020 BKN040
     FM182200 19012G20KT 6SM -SHRA VCTS OVC035CB PROB30 1822/1824
      2SM TSRA OVC025CB
     FM190500 20007KT 4SM BR VCSH OVC050=

USA.gov is the U.S. government's official web portal to all federal, state and local government web resources and services.